createdAt,value
2022-12-25T00:00:56.631Z,41.30
2022-12-25T00:05:50.362Z,34.70
2022-12-25T00:08:17.657Z,37.20
2022-12-25T00:10:45.536Z,38.10
2022-12-25T00:13:12.596Z,39.70
2022-12-25T00:18:06.832Z,35.60
2022-12-25T00:20:33.507Z,35.30
2022-12-25T00:23:00.342Z,34.40
2022-12-25T00:25:27.078Z,36.00
2022-12-25T00:27:53.825Z,37.40
2022-12-25T00:32:47.226Z,33.50
2022-12-25T00:35:13.963Z,32.70
2022-12-25T00:37:40.646Z,30.90
2022-12-25T00:40:08.173Z,33.00
2022-12-25T00:42:34.967Z,30.80
2022-12-25T00:45:01.734Z,33.40
2022-12-25T00:49:55.312Z,30.60
2022-12-25T00:52:22.221Z,30.70
2022-12-25T00:54:48.947Z,31.60
2022-12-25T00:57:15.701Z,30.70
2022-12-25T00:59:42.436Z,30.00
2022-12-25T01:02:24.758Z,29.00
2022-12-25T01:04:55.779Z,30.00
2022-12-25T01:07:24.090Z,28.60
2022-12-25T01:10:09.812Z,29.50
2022-12-25T01:12:38.608Z,29.50
2022-12-25T01:15:07.168Z,26.90
2022-12-25T01:17:34.061Z,27.90
2022-12-25T01:20:00.845Z,28.00
2022-12-25T01:22:27.570Z,27.40
2022-12-25T01:24:54.242Z,27.80
2022-12-25T01:27:20.968Z,27.40
2022-12-25T01:29:47.644Z,27.50
2022-12-25T01:32:14.454Z,26.70
2022-12-25T01:34:41.267Z,24.50
2022-12-25T01:37:07.994Z,25.80
2022-12-25T01:39:34.732Z,26.90
2022-12-25T01:42:01.490Z,26.60
2022-12-25T01:44:37.507Z,24.70
2022-12-25T01:47:04.707Z,25.00
2022-12-25T01:49:31.906Z,26.10
2022-12-25T01:52:01.094Z,26.40
2022-12-25T01:54:34.407Z,26.90
2022-12-25T01:57:02.397Z,27.10
2022-12-25T01:59:29.229Z,25.00
2022-12-25T02:01:56.665Z,24.40
2022-12-25T02:04:38.825Z,25.10
2022-12-25T02:07:05.648Z,24.10
2022-12-25T02:09:32.609Z,24.50
2022-12-25T02:11:59.339Z,26.20
2022-12-25T02:14:28.033Z,24.20
2022-12-25T02:17:10.983Z,24.30
2022-12-25T02:19:46.940Z,24.20
2022-12-25T02:22:34.114Z,24.20
2022-12-25T02:25:13.347Z,23.20
2022-12-25T02:27:54.830Z,24.80
2022-12-25T02:30:22.239Z,23.70
2022-12-25T02:33:21.261Z,23.90
2022-12-25T02:35:51.030Z,23.20
2022-12-25T02:38:24.267Z,23.00
2022-12-25T02:40:58.446Z,23.20
2022-12-25T02:43:55.467Z,23.80
2022-12-25T02:46:41.841Z,23.00
2022-12-25T02:49:29.275Z,22.20
2022-12-25T02:52:17.328Z,23.00
2022-12-25T02:57:52.608Z,21.00
2022-12-25T03:00:38.794Z,20.40
2022-12-25T03:03:24.709Z,21.20
2022-12-25T03:06:10.069Z,19.80
2022-12-25T03:08:38.735Z,20.80
2022-12-25T03:11:26.473Z,20.10
2022-12-25T03:13:55.874Z,20.20
2022-12-25T03:16:41.225Z,20.00
2022-12-25T03:19:27.996Z,20.10
2022-12-25T03:22:13.435Z,19.50
2022-12-25T03:24:58.850Z,18.60
2022-12-25T03:27:25.820Z,16.80
2022-12-25T03:30:11.138Z,20.00
2022-12-25T03:32:41.562Z,17.70
2022-12-25T03:35:24.172Z,17.70
2022-12-25T03:38:25.949Z,18.90
2022-12-25T03:41:20.980Z,16.70
2022-12-25T03:44:14.844Z,16.60
2022-12-25T03:47:05.439Z,17.40
2022-12-25T03:50:13.468Z,16.00
2022-12-25T03:52:58.830Z,15.00
2022-12-25T03:55:44.175Z,15.90
2022-12-25T03:58:37.249Z,15.40
2022-12-25T04:01:22.732Z,15.20
2022-12-25T04:04:08.413Z,15.20
2022-12-25T04:06:53.731Z,16.00
2022-12-25T04:09:39.068Z,14.80
2022-12-25T04:12:25.136Z,15.50
2022-12-25T04:15:10.652Z,14.60
2022-12-25T04:17:56.022Z,13.70
2022-12-25T04:20:41.370Z,14.70
2022-12-25T04:23:26.554Z,15.80
2022-12-25T04:26:11.933Z,14.20
2022-12-25T04:28:57.395Z,13.80
2022-12-25T04:31:43.030Z,15.30
2022-12-25T04:34:28.393Z,17.30
2022-12-25T04:36:55.114Z,19.50
2022-12-25T04:39:21.827Z,39.00
2022-12-25T04:41:48.539Z,24.90
2022-12-25T04:44:15.223Z,18.70
2022-12-25T04:46:42.021Z,23.70
2022-12-25T04:51:36.281Z,25.80
2022-12-25T04:54:03.110Z,20.40
2022-12-25T04:58:56.450Z,17.10
2022-12-25T05:01:23.251Z,14.80
2022-12-25T05:06:16.750Z,13.20
2022-12-25T05:08:43.581Z,12.90
2022-12-25T05:11:12.473Z,12.80
2022-12-25T05:13:39.484Z,12.20
2022-12-25T05:16:12.118Z,14.30
2022-12-25T05:18:38.927Z,14.50
2022-12-25T05:21:07.795Z,14.40
2022-12-25T05:23:34.549Z,15.50
2022-12-25T05:26:06.035Z,31.80
2022-12-25T05:28:34.840Z,33.00
2022-12-25T05:31:01.842Z,34.10
2022-12-25T05:33:28.588Z,29.70
2022-12-25T05:35:55.313Z,31.80
2022-12-25T05:38:22.022Z,47.40
2022-12-25T05:40:51.110Z,16.60
2022-12-25T05:43:19.410Z,12.80
2022-12-25T05:45:46.079Z,13.70
2022-12-25T05:48:12.768Z,11.80
2022-12-25T05:50:39.505Z,12.30
2022-12-25T05:53:09.808Z,12.00
2022-12-25T05:55:37.171Z,10.20
2022-12-25T05:58:04.406Z,9.80
2022-12-25T06:00:31.081Z,10.50
2022-12-25T06:02:58.070Z,9.80
2022-12-25T06:05:24.808Z,9.60
2022-12-25T06:07:51.452Z,10.10
2022-12-25T06:10:18.224Z,7.50
2022-12-25T06:15:12.801Z,12.80
2022-12-25T06:17:39.533Z,13.70
2022-12-25T06:20:07.437Z,17.50
2022-12-25T06:22:34.268Z,21.30
2022-12-25T06:25:01.178Z,15.70
2022-12-25T06:27:28.608Z,13.30
2022-12-25T06:29:55.571Z,11.20
2022-12-25T06:32:22.275Z,8.70
2022-12-25T06:34:48.964Z,9.40
2022-12-25T06:37:15.619Z,9.60
2022-12-25T06:39:42.310Z,9.50
2022-12-25T06:42:09.105Z,9.10
2022-12-25T06:44:35.794Z,11.40
2022-12-25T06:47:02.469Z,11.30
2022-12-25T06:49:29.166Z,9.10
2022-12-25T06:51:55.884Z,10.20
2022-12-25T06:54:22.595Z,17.50
2022-12-25T06:56:49.829Z,9.80
2022-12-25T06:59:16.562Z,7.30
2022-12-25T07:01:43.394Z,7.80
2022-12-25T07:06:43.979Z,6.60
2022-12-25T07:09:10.804Z,8.00
2022-12-25T07:14:04.181Z,6.90
2022-12-25T07:16:30.936Z,8.20
2022-12-25T07:19:00.284Z,7.90
2022-12-25T07:21:27.005Z,6.70
2022-12-25T07:23:53.699Z,7.20
2022-12-25T07:26:20.977Z,6.20
2022-12-25T07:28:47.739Z,5.50
2022-12-25T07:31:15.169Z,5.90
2022-12-25T07:33:42.066Z,5.90
2022-12-25T07:36:12.415Z,6.00
2022-12-25T07:38:43.426Z,5.30
2022-12-25T07:41:11.416Z,5.80
2022-12-25T07:43:38.127Z,6.30
2022-12-25T07:46:05.121Z,5.90
2022-12-25T07:48:31.854Z,5.80
2022-12-25T07:50:59.602Z,5.50
2022-12-25T07:53:26.764Z,5.40
2022-12-25T07:56:13.153Z,6.90
2022-12-25T07:58:40.172Z,7.40
2022-12-25T08:01:15.161Z,8.60
2022-12-25T08:03:42.080Z,6.80
2022-12-25T08:08:36.396Z,6.50
2022-12-25T08:11:03.196Z,6.10
2022-12-25T08:15:58.777Z,6.00
2022-12-25T08:18:29.844Z,6.70
2022-12-25T08:20:57.364Z,6.30
2022-12-25T08:25:50.641Z,7.10
2022-12-25T08:28:17.347Z,8.20
2022-12-25T08:30:44.035Z,8.00
2022-12-25T08:33:10.722Z,9.40
2022-12-25T08:35:37.412Z,8.00
2022-12-25T08:38:04.082Z,8.10
2022-12-25T08:40:30.760Z,11.70
2022-12-25T08:42:57.540Z,9.70
2022-12-25T08:45:27.381Z,9.60
2022-12-25T08:47:58.040Z,11.80
2022-12-25T08:50:24.871Z,8.20
2022-12-25T08:55:18.159Z,13.10
2022-12-25T08:57:44.813Z,8.30
2022-12-25T09:00:11.931Z,7.60
2022-12-25T09:02:38.718Z,6.30
2022-12-25T09:07:32.432Z,7.00
2022-12-25T09:09:59.154Z,6.20
2022-12-25T09:12:25.823Z,6.40
2022-12-25T09:14:52.529Z,6.50
2022-12-25T09:17:19.602Z,7.30
2022-12-25T09:19:46.265Z,8.30
2022-12-25T09:22:12.927Z,9.60
2022-12-25T09:24:39.650Z,6.20
2022-12-25T09:27:07.170Z,10.60
2022-12-25T09:29:33.889Z,13.70
2022-12-25T09:32:00.664Z,23.70
2022-12-25T09:34:27.573Z,18.60
2022-12-25T09:36:54.288Z,9.90
2022-12-25T09:42:01.618Z,7.40
2022-12-25T09:44:30.926Z,9.00
2022-12-25T09:47:00.666Z,7.80
2022-12-25T09:49:37.229Z,13.80
2022-12-25T09:52:07.722Z,17.70
2022-12-25T09:54:59.381Z,17.50
2022-12-25T09:57:26.297Z,16.70
2022-12-25T10:02:48.747Z,8.70
2022-12-25T10:05:31.744Z,17.70
2022-12-25T10:08:24.348Z,17.10
2022-12-25T10:10:53.056Z,7.30
2022-12-25T10:13:41.633Z,6.50
2022-12-25T10:16:18.469Z,7.10
2022-12-25T10:18:53.018Z,6.90
2022-12-25T10:21:19.964Z,8.90
2022-12-25T10:26:19.298Z,8.70
2022-12-25T10:28:48.433Z,9.00
2022-12-25T10:31:27.040Z,7.20
2022-12-25T10:33:54.135Z,7.80
2022-12-25T10:36:23.694Z,7.50
2022-12-25T10:38:50.424Z,6.80
2022-12-25T10:41:46.445Z,22.00
2022-12-25T10:44:24.642Z,7.90
2022-12-25T10:46:53.655Z,6.20
2022-12-25T10:49:21.861Z,6.60
2022-12-25T10:51:48.661Z,5.80
2022-12-25T10:57:08.930Z,5.00
2022-12-25T10:59:44.991Z,5.00
2022-12-25T11:02:20.205Z,4.80
2022-12-25T11:04:47.322Z,5.10
2022-12-25T11:07:21.680Z,20.40
2022-12-25T11:10:02.640Z,11.20
2022-12-25T11:12:34.580Z,8.40
2022-12-25T11:15:03.919Z,8.70
2022-12-25T11:17:30.651Z,11.00
2022-12-25T11:20:01.049Z,9.50
2022-12-25T11:22:29.253Z,7.70
2022-12-25T11:24:56.030Z,6.20
2022-12-25T11:30:01.933Z,9.30
2022-12-25T11:32:32.821Z,8.90
2022-12-25T11:34:59.987Z,11.90
2022-12-25T11:37:26.705Z,6.00
2022-12-25T11:39:53.427Z,15.90
2022-12-25T11:42:33.414Z,8.20
2022-12-25T11:45:06.545Z,5.70
2022-12-25T11:47:49.156Z,5.90
2022-12-25T11:50:34.225Z,5.60
2022-12-25T11:53:02.797Z,5.50
2022-12-25T11:55:29.491Z,6.00
2022-12-25T11:57:58.565Z,4.60
2022-12-25T12:00:25.268Z,4.60
2022-12-25T12:02:58.842Z,5.50
2022-12-25T12:05:32.644Z,5.50
2022-12-25T12:08:01.499Z,5.90
2022-12-25T12:10:33.631Z,5.30
2022-12-25T12:13:06.490Z,6.30
2022-12-25T12:15:43.019Z,5.90
2022-12-25T12:18:28.148Z,7.20
2022-12-25T12:21:08.542Z,6.80
2022-12-25T12:23:56.393Z,62.30
2022-12-25T12:26:30.672Z,12.20
2022-12-25T12:29:01.297Z,7.70
2022-12-25T12:31:41.943Z,5.70
2022-12-25T12:34:27.664Z,5.50
2022-12-25T12:37:07.863Z,5.20
2022-12-25T12:39:38.586Z,5.40
2022-12-25T12:42:15.895Z,7.10
2022-12-25T12:44:42.644Z,6.90
2022-12-25T12:47:09.360Z,6.80
2022-12-25T12:49:36.054Z,7.60
2022-12-25T12:52:22.427Z,6.10
2022-12-25T12:55:13.911Z,6.90
2022-12-25T12:57:40.737Z,6.10
2022-12-25T13:02:43.688Z,8.40
2022-12-25T13:07:49.112Z,11.70
2022-12-25T13:10:35.079Z,22.10
2022-12-25T13:13:06.984Z,14.40
2022-12-25T13:15:34.308Z,12.40
2022-12-25T13:18:06.154Z,7.90
2022-12-25T13:20:54.820Z,8.00
2022-12-25T13:23:23.668Z,7.50
2022-12-25T13:25:55.003Z,11.10
2022-12-25T13:28:29.075Z,9.20
2022-12-25T13:31:21.361Z,10.90
2022-12-25T13:33:51.188Z,7.40
2022-12-25T13:36:17.972Z,7.00
2022-12-25T13:38:49.334Z,7.20
2022-12-25T13:41:42.575Z,6.30
2022-12-25T13:44:21.000Z,6.50
2022-12-25T13:46:47.813Z,6.80
2022-12-25T13:51:45.715Z,6.70
2022-12-25T13:54:14.172Z,6.50
2022-12-25T13:56:49.571Z,7.10
2022-12-25T13:59:17.445Z,7.70
2022-12-25T14:01:44.921Z,7.70
2022-12-25T14:04:19.912Z,7.60
2022-12-25T14:06:47.242Z,8.20
2022-12-25T14:09:14.064Z,7.60
2022-12-25T14:14:15.241Z,7.30
2022-12-25T14:16:43.587Z,7.20
2022-12-25T14:19:40.080Z,8.00
2022-12-25T14:22:11.262Z,6.30
2022-12-25T14:24:38.191Z,6.70
2022-12-25T14:29:38.959Z,6.10
2022-12-25T14:32:20.726Z,6.40
2022-12-25T14:34:48.050Z,7.20
2022-12-25T14:37:32.891Z,7.60
2022-12-25T14:40:17.994Z,7.50
2022-12-25T14:42:44.731Z,6.80
2022-12-25T14:45:26.473Z,7.60
2022-12-25T14:47:54.526Z,7.60
2022-12-25T14:50:31.483Z,7.80
2022-12-25T14:52:58.913Z,8.70
2022-12-25T14:55:27.598Z,9.30
2022-12-25T14:57:58.716Z,10.40
2022-12-25T15:00:34.988Z,11.30
2022-12-25T15:03:01.873Z,11.00
2022-12-25T15:05:38.860Z,10.30
2022-12-25T15:08:08.733Z,11.00
2022-12-25T15:13:22.726Z,9.60
2022-12-25T15:15:51.036Z,10.50
2022-12-25T15:18:17.932Z,10.20
2022-12-25T15:23:21.723Z,10.60
2022-12-25T15:25:48.666Z,10.60
2022-12-25T15:30:42.231Z,10.10
2022-12-25T15:35:44.387Z,18.40
2022-12-25T15:38:12.239Z,18.10
2022-12-25T15:40:40.319Z,13.50
2022-12-25T15:43:14.371Z,10.30
2022-12-25T15:45:49.149Z,31.10
2022-12-25T15:48:15.918Z,10.30
2022-12-25T15:50:44.275Z,8.90
2022-12-25T15:53:11.111Z,9.00
2022-12-25T15:58:04.653Z,7.50
2022-12-25T16:00:31.438Z,8.10
2022-12-25T16:02:58.296Z,7.90
2022-12-25T16:05:25.167Z,7.70
2022-12-25T16:07:51.890Z,8.10
2022-12-25T16:12:45.940Z,8.10
2022-12-25T16:15:13.878Z,7.80
2022-12-25T16:17:40.633Z,7.50
2022-12-25T16:20:08.091Z,12.60
2022-12-25T16:22:40.160Z,12.10
2022-12-25T16:25:12.238Z,8.20
2022-12-25T16:27:38.953Z,7.60
2022-12-25T16:30:06.135Z,7.50
2022-12-25T16:32:33.290Z,7.70
2022-12-25T16:35:01.062Z,7.70
2022-12-25T16:37:27.762Z,7.70
2022-12-25T16:39:54.515Z,7.90
2022-12-25T16:42:21.250Z,7.20
2022-12-25T16:44:47.993Z,14.60
2022-12-25T16:47:14.732Z,12.30
2022-12-25T16:49:41.810Z,10.10
2022-12-25T16:52:08.515Z,9.80
2022-12-25T16:54:35.399Z,8.00
2022-12-25T16:59:29.580Z,7.10
2022-12-25T17:01:56.397Z,8.50
2022-12-25T17:06:49.863Z,7.80
2022-12-25T17:09:16.595Z,8.10
2022-12-25T17:11:43.277Z,7.90
2022-12-25T17:14:10.058Z,8.60
2022-12-25T17:16:37.167Z,8.70
2022-12-25T17:19:09.686Z,8.30
2022-12-25T17:21:38.171Z,9.10
2022-12-25T17:24:05.894Z,8.00
2022-12-25T17:26:32.936Z,9.20
2022-12-25T17:29:00.033Z,8.60
2022-12-25T17:31:28.425Z,8.10
2022-12-25T17:33:55.174Z,8.80
2022-12-25T17:36:21.991Z,9.40
2022-12-25T17:38:48.779Z,9.80
2022-12-25T17:41:16.593Z,9.90
2022-12-25T17:43:45.627Z,17.80
2022-12-25T17:46:17.760Z,10.10
2022-12-25T17:48:44.989Z,8.30
2022-12-25T17:51:13.375Z,9.00
2022-12-25T17:53:41.785Z,8.90
2022-12-25T17:56:09.634Z,7.70
2022-12-25T17:58:37.157Z,9.10
2022-12-25T18:01:15.285Z,8.40
2022-12-25T18:03:42.939Z,9.00
2022-12-25T18:06:14.757Z,9.70
2022-12-25T18:08:41.978Z,10.00
2022-12-25T18:11:15.224Z,10.10
2022-12-25T18:13:44.809Z,10.60
2022-12-25T18:16:12.531Z,11.20
2022-12-25T18:18:39.537Z,13.00
2022-12-25T18:23:33.274Z,12.60
2022-12-25T18:26:05.878Z,12.40
2022-12-25T18:28:32.704Z,11.50
2022-12-25T18:33:26.254Z,11.50
2022-12-25T18:35:59.685Z,11.40
2022-12-25T18:38:27.179Z,10.90
2022-12-25T18:43:20.813Z,13.50
2022-12-25T18:46:07.592Z,10.40
2022-12-25T18:51:03.143Z,10.50
2022-12-25T18:53:30.165Z,10.60
2022-12-25T18:55:57.925Z,9.00
2022-12-25T18:58:25.180Z,11.20
2022-12-25T19:00:52.591Z,10.40
2022-12-25T19:03:19.608Z,9.80
2022-12-25T19:05:46.724Z,10.40
2022-12-25T19:08:13.475Z,10.20
2022-12-25T19:10:41.278Z,12.50
2022-12-25T19:13:08.179Z,10.70
2022-12-25T19:18:02.763Z,10.50
2022-12-25T19:20:29.479Z,14.90
2022-12-25T19:22:57.596Z,11.20
2022-12-25T19:25:24.349Z,10.00
2022-12-25T19:27:51.112Z,22.60
2022-12-25T19:32:45.076Z,14.80
2022-12-25T19:35:12.211Z,12.10
2022-12-25T19:37:38.967Z,11.40
2022-12-25T19:40:06.074Z,11.70
2022-12-25T19:42:32.831Z,12.60
2022-12-25T19:44:59.597Z,13.30
2022-12-25T19:49:53.676Z,12.40
2022-12-25T19:52:23.805Z,12.80
2022-12-25T19:54:52.251Z,10.90
2022-12-25T19:57:19.007Z,11.50
2022-12-25T19:59:45.758Z,9.90
2022-12-25T20:02:12.635Z,12.30
2022-12-25T20:04:39.358Z,11.40
2022-12-25T20:07:06.079Z,11.00
2022-12-25T20:09:32.790Z,10.20
2022-12-25T20:11:59.519Z,9.70
2022-12-25T20:14:26.270Z,9.50
2022-12-25T20:16:54.151Z,9.00
2022-12-25T20:19:20.844Z,9.00
2022-12-25T20:21:47.699Z,9.30
2022-12-25T20:26:41.247Z,9.50
2022-12-25T20:29:08.212Z,8.90
2022-12-25T20:34:09.385Z,8.40
2022-12-25T20:36:37.579Z,10.40
2022-12-25T20:39:08.244Z,10.00
2022-12-25T20:41:35.248Z,9.10
2022-12-25T20:44:04.087Z,9.10
2022-12-25T20:46:30.897Z,9.20
2022-12-25T20:51:25.220Z,9.80
2022-12-25T20:53:52.150Z,9.50
2022-12-25T20:56:19.795Z,10.30
2022-12-25T20:58:46.588Z,9.40
2022-12-25T21:01:15.604Z,9.60
2022-12-25T21:03:42.531Z,9.80
2022-12-25T21:06:09.818Z,9.10
2022-12-25T21:08:36.757Z,9.40
2022-12-25T21:11:04.338Z,9.80
2022-12-25T21:13:33.872Z,10.70
2022-12-25T21:16:00.730Z,9.80
2022-12-25T21:20:56.262Z,10.20
2022-12-25T21:23:23.387Z,10.10
2022-12-25T21:25:50.115Z,10.90
2022-12-25T21:30:43.661Z,11.10
2022-12-25T21:35:57.076Z,10.90
2022-12-25T21:38:23.796Z,11.80
2022-12-25T21:40:50.604Z,12.70
2022-12-25T21:45:44.531Z,13.20
2022-12-25T21:50:56.575Z,12.70
2022-12-25T21:53:23.276Z,11.40
2022-12-25T21:58:50.294Z,12.90
2022-12-25T22:01:17.256Z,11.30
2022-12-25T22:03:44.431Z,11.00
2022-12-25T22:06:30.448Z,11.80
2022-12-25T22:08:57.299Z,10.90
2022-12-25T22:14:52.342Z,10.90
2022-12-25T22:17:40.868Z,11.40
2022-12-25T22:20:09.728Z,11.60
2022-12-25T22:22:36.494Z,11.20
2022-12-25T22:25:04.858Z,10.30
2022-12-25T22:27:33.063Z,10.30
2022-12-25T22:29:59.797Z,11.10
2022-12-25T22:32:26.996Z,12.00
2022-12-25T22:34:53.738Z,10.40
2022-12-25T22:37:20.475Z,10.60
2022-12-25T22:39:47.807Z,11.30
2022-12-25T22:42:14.536Z,10.80
2022-12-25T22:44:41.303Z,10.90
2022-12-25T22:47:08.439Z,11.00
2022-12-25T22:52:02.351Z,9.80
2022-12-25T22:54:30.992Z,10.40
2022-12-25T22:56:58.051Z,9.90
2022-12-25T22:59:24.852Z,10.70
2022-12-25T23:01:51.612Z,9.80
2022-12-25T23:06:46.492Z,8.50
2022-12-25T23:09:18.886Z,11.50
2022-12-25T23:11:48.962Z,9.90
2022-12-25T23:14:34.227Z,10.80
2022-12-25T23:17:01.101Z,10.70
2022-12-25T23:22:32.020Z,9.60
2022-12-25T23:25:17.317Z,9.70
2022-12-25T23:27:44.640Z,11.70
2022-12-25T23:30:13.177Z,10.70
2022-12-25T23:32:39.888Z,9.40
2022-12-25T23:35:07.206Z,11.70
2022-12-25T23:37:33.935Z,11.10
2022-12-25T23:40:00.591Z,10.60
2022-12-25T23:42:27.328Z,10.10
2022-12-25T23:44:54.356Z,9.40
2022-12-25T23:47:21.069Z,10.40
2022-12-25T23:49:47.834Z,9.90
2022-12-25T23:52:14.527Z,10.10
2022-12-25T23:54:41.241Z,10.30
2022-12-25T23:59:34.678Z,9.30
